Time;durP1;ratioP1;P1;durP2;ratioP2;P2;SDS_P1;SDS_P2;PMS_P1;PMS_P2;Temp;Humidity;BMP_temperature;BMP_pressure;BME280_temperature;BME280_humidity;BME280_pressure;Samples;Min_cycle;Max_cycle;Signal;HPM_P1;HPM_P2
2022/08/19 00:01:45;;;;;;;;;18.25;15.75;;;;;23.29;42.28;101059.09;5082206;28;45344;-58
2022/08/19 00:04:13;;;;;;;;;17.25;15.50;;;;;23.28;42.10;101064.56;5061293;28;45358;-58
2022/08/19 00:06:41;;;;;;;;;22.25;16.50;;;;;23.27;42.21;101069.06;5076262;28;45315;-58
2022/08/19 00:09:09;;;;;;;;;15.00;15.00;;;;;23.25;42.25;101080.84;5082596;28;45153;-58
2022/08/19 00:11:37;;;;;;;;;16.50;15.25;;;;;23.23;42.12;101083.59;5082356;28;45361;-58
2022/08/19 00:14:05;;;;;;;;;20.25;17.75;;;;;23.21;42.18;101080.19;5081865;28;45349;-58
2022/08/19 00:16:31;;;;;;;;;14.00;14.00;;;;;23.20;42.36;101075.78;5082096;28;45282;-58
2022/08/19 00:18:56;;;;;;;;;18.00;16.50;;;;;23.17;42.51;101081.34;5082520;28;45249;-58
2022/08/19 00:21:23;;;;;;;;;17.25;16.00;;;;;23.16;42.35;101085.81;5082216;28;45230;-58
2022/08/19 00:23:49;;;;;;;;;17.25;16.25;;;;;23.14;42.71;101078.78;5080725;28;47844;-58
2022/08/19 00:26:15;;;;;;;;;17.50;15.50;;;;;23.10;42.41;101072.75;5082187;28;45549;-58
2022/08/19 00:28:40;;;;;;;;;18.00;15.75;;;;;23.10;42.58;101074.59;5082539;28;45457;-58
2022/08/19 00:31:08;;;;;;;;;19.00;18.00;;;;;23.09;42.56;101072.88;5081917;28;45498;-58
2022/08/19 00:33:34;;;;;;;;;20.75;17.00;;;;;23.07;42.73;101078.31;5082215;28;46302;-57
2022/08/19 00:36:01;;;;;;;;;20.75;18.00;;;;;23.05;42.41;101078.41;5081979;28;45322;-58
2022/08/19 00:38:26;;;;;;;;;14.50;13.25;;;;;23.02;42.77;101077.75;5082096;28;45317;-58
2022/08/19 00:40:52;;;;;;;;;11.25;10.25;;;;;23.03;42.68;101084.81;5081920;28;45188;-58
2022/08/19 00:43:23;;;;;;;;;13.50;13.00;;;;;23.00;42.56;101085.00;5081985;28;45251;-58
2022/08/19 00:45:49;;;;;;;;;16.75;14.75;;;;;22.98;42.81;101090.47;5081914;28;45496;-58
2022/08/19 00:48:17;;;;;;;;;18.25;15.75;;;;;22.96;42.65;101087.00;5082301;27;45152;-58
2022/08/19 00:50:44;;;;;;;;;16.00;13.75;;;;;22.93;43.10;101084.53;5073073;28;45241;-58
2022/08/19 00:53:11;;;;;;;;;17.00;15.50;;;;;22.92;42.80;101085.47;5081477;28;46215;-58
2022/08/19 00:55:38;;;;;;;;;15.75;14.50;;;;;22.88;42.90;101082.13;5081643;28;45423;-57
2022/08/19 00:58:07;;;;;;;;;12.75;12.25;;;;;22.89;42.97;101089.22;5081884;28;45298;-58
2022/08/19 01:00:37;;;;;;;;;14.25;13.25;;;;;22.87;42.71;101088.44;5081373;28;45383;-57
2022/08/19 01:03:08;;;;;;;;;16.00;15.00;;;;;22.85;43.20;101092.16;5070592;28;46172;-58
2022/08/19 01:05:35;;;;;;;;;17.25;16.25;;;;;22.81;43.06;101074.56;5061235;28;46618;-58
2022/08/19 01:08:03;;;;;;;;;13.25;13.25;;;;;22.77;43.25;101075.72;5061171;28;45262;-58
2022/08/19 01:10:37;;;;;;;;;14.75;13.75;;;;;22.73;43.16;101081.22;5061086;28;45336;-58
2022/08/19 01:13:03;;;;;;;;;15.75;13.50;;;;;22.70;43.38;101073.41;5060406;28;45289;-58
2022/08/19 01:15:33;;;;;;;;;16.00;14.75;;;;;22.67;43.42;101078.06;5060597;28;45366;-58
2022/08/19 01:18:04;;;;;;;;;14.75;14.25;;;;;22.66;43.21;101087.06;5061115;28;45252;-58
2022/08/19 01:20:29;;;;;;;;;12.50;12.00;;;;;22.62;43.19;101086.38;5061009;28;45300;-58
2022/08/19 01:22:57;;;;;;;;;13.50;12.75;;;;;22.62;43.47;101080.16;5060449;28;46158;-57
2022/08/19 01:25:38;;;;;;;;;12.75;12.75;;;;;22.60;43.30;101080.22;5061250;28;45327;-57
2022/08/19 01:28:03;;;;;;;;;12.50;12.50;;;;;22.57;43.95;101075.06;5061094;28;45260;-57
2022/08/19 01:30:33;;;;;;;;;14.75;13.00;;;;;22.55;43.29;101079.66;5060719;28;45328;-58
2022/08/19 01:32:59;;;;;;;;;15.75;14.50;;;;;22.53;43.25;101092.28;5060609;28;47324;-57
2022/08/19 01:35:31;;;;;;;;;15.50;14.50;;;;;22.47;43.40;101085.47;5060774;28;45399;-58
2022/08/19 01:38:00;;;;;;;;;15.00;13.00;;;;;22.44;43.42;101087.44;5060674;28;45252;-57
2022/08/19 01:40:29;;;;;;;;;11.75;11.75;;;;;22.41;43.44;101077.78;5060649;28;45431;-58
2022/08/19 01:42:55;;;;;;;;;11.75;11.75;;;;;22.38;43.87;101086.00;5075154;28;47328;-58
2022/08/19 01:45:22;;;;;;;;;17.00;13.75;;;;;22.35;43.70;101079.00;5060654;28;45178;-57
2022/08/19 01:47:48;;;;;;;;;14.25;14.00;;;;;22.26;43.63;101074.16;5060517;28;45217;-58
2022/08/19 01:50:14;;;;;;;;;13.25;12.25;;;;;22.27;43.79;101085.75;5060450;28;45228;-58
2022/08/19 01:52:42;;;;;;;;;10.25;10.25;;;;;22.23;43.77;101087.72;5078915;28;45451;-58
2022/08/19 01:55:10;;;;;;;;;15.00;12.25;;;;;22.21;44.27;101081.59;5080883;28;45283;-57
2022/08/19 01:57:38;;;;;;;;;12.00;11.50;;;;;22.17;43.89;101090.75;5080806;28;45227;-57
2022/08/19 02:00:08;;;;;;;;;12.25;12.25;;;;;22.14;43.84;101088.25;5080689;28;45491;-57
2022/08/19 02:02:34;;;;;;;;;18.00;13.50;;;;;22.11;44.31;101097.31;5073452;28;48540;-58
2022/08/19 02:04:59;;;;;;;;;14.25;12.00;;;;;22.08;44.07;101086.78;5060512;28;45291;-58
2022/08/19 02:07:25;;;;;;;;;12.50;10.25;;;;;22.05;44.42;101093.19;5060460;28;45743;-58
2022/08/19 02:09:50;;;;;;;;;13.25;13.25;;;;;22.02;44.45;101098.69;5060407;28;45223;-58
2022/08/19 02:12:16;;;;;;;;;12.00;12.00;;;;;21.97;44.18;101098.09;5060235;28;45414;-58
2022/08/19 02:14:42;;;;;;;;;15.25;13.00;;;;;21.97;44.20;101083.88;5060465;28;45306;-58
2022/08/19 02:17:07;;;;;;;;;12.50;10.75;;;;;21.94;44.42;101090.25;5059867;28;45223;-58
2022/08/19 02:19:33;;;;;;;;;13.75;11.75;;;;;21.92;44.04;101085.00;5060315;28;45255;-58
2022/08/19 02:21:59;;;;;;;;;12.00;12.00;;;;;21.90;44.59;101092.25;5059908;28;46283;-58
2022/08/19 02:24:25;;;;;;;;;13.25;13.00;;;;;21.87;44.35;101087.06;5059804;28;45549;-58
2022/08/19 02:26:51;;;;;;;;;13.50;12.50;;;;;21.86;44.48;101097.84;5060071;28;45463;-59
2022/08/19 02:29:16;;;;;;;;;12.00;11.00;;;;;21.84;44.80;101105.09;5060058;28;45303;-58
2022/08/19 02:31:41;;;;;;;;;16.00;16.00;;;;;21.83;44.66;101108.72;5059679;28;45890;-58
2022/08/19 02:34:07;;;;;;;;;13.75;13.25;;;;;21.78;45.04;101097.41;5060134;28;45300;-58
2022/08/19 02:36:32;;;;;;;;;12.50;11.25;;;;;21.68;44.75;101087.22;5059802;28;46762;-58
2022/08/19 02:38:58;;;;;;;;;13.75;12.50;;;;;21.72;45.21;101095.94;5059886;28;45281;-58
2022/08/19 02:41:27;;;;;;;;;14.75;13.00;;;;;21.70;44.92;101103.19;5059585;28;45408;-57
2022/08/19 02:43:52;;;;;;;;;13.00;13.00;;;;;21.68;45.31;101100.59;5060189;28;45244;-58
2022/08/19 02:46:22;;;;;;;;;16.50;14.50;;;;;21.67;44.82;101098.88;5059682;28;45252;-57
2022/08/19 02:48:49;;;;;;;;;15.50;12.50;;;;;21.65;45.01;101103.44;5060075;28;45329;-58
2022/08/19 02:51:28;;;;;;;;;15.00;14.00;;;;;21.62;44.79;101103.59;5066321;28;46117;-58
2022/08/19 02:53:54;;;;;;;;;14.50;14.50;;;;;21.58;44.97;101105.59;5079809;28;45337;-57
2022/08/19 02:56:21;;;;;;;;;17.00;15.25;;;;;21.58;45.70;101105.59;5080153;28;45293;-58
2022/08/19 02:58:48;;;;;;;;;18.75;15.00;;;;;21.57;45.47;101109.22;5079759;28;45326;-57
2022/08/19 03:01:21;;;;;;;;;17.50;15.25;;;;;21.56;45.17;101106.63;5079394;28;46176;-58
2022/08/19 03:03:47;;;;;;;;;18.00;16.75;;;;;21.58;45.69;101110.06;5063120;27;45436;-58
2022/08/19 03:06:14;;;;;;;;;21.75;17.50;;;;;21.58;45.73;101105.59;5059664;28;45531;-58
2022/08/19 03:08:42;;;;;;;;;16.50;15.50;;;;;21.57;45.23;101103.88;5059347;28;45526;-58
2022/08/19 03:11:13;;;;;;;;;17.50;15.00;;;;;21.56;45.43;101101.28;5059440;28;46219;-58
2022/08/19 03:13:39;;;;;;;;;18.25;16.00;;;;;21.57;45.69;101094.97;5059459;28;45480;-58
2022/08/19 03:16:05;;;;;;;;;15.50;15.00;;;;;21.50;45.25;101091.75;5059639;28;45312;-58
2022/08/19 03:18:30;;;;;;;;;20.25;18.25;;;;;21.55;45.36;101100.41;5059382;28;45561;-58
2022/08/19 03:20:56;;;;;;;;;13.75;13.75;;;;;21.54;45.88;101098.66;5059224;28;46008;-58
2022/08/19 03:23:23;;;;;;;;;17.25;16.75;;;;;21.55;45.33;101095.06;5059088;28;45244;-58
2022/08/19 03:25:51;;;;;;;;;18.75;16.25;;;;;21.56;45.66;101099.47;5059539;28;45304;-58
2022/08/19 03:28:16;;;;;;;;;18.50;18.50;;;;;21.54;45.84;101093.28;5059162;28;45540;-58
2022/08/19 03:30:55;;;;;;;;;15.75;15.75;;;;;21.55;45.72;101097.72;5058896;28;45292;-58
2022/08/19 03:33:22;;;;;;;;;13.75;12.75;;;;;21.50;46.21;101090.91;5059298;28;45242;-57
2022/08/19 03:35:47;;;;;;;;;14.25;13.50;;;;;21.52;46.15;101097.88;5061280;28;45364;-58
2022/08/19 03:38:13;;;;;;;;;17.25;17.00;;;;;21.50;46.03;101091.75;5062554;28;45270;-58
2022/08/19 03:40:38;;;;;;;;;16.75;16.25;;;;;21.51;45.94;101095.28;5062368;28;48387;-58
2022/08/19 03:43:03;;;;;;;;;14.75;14.00;;;;;21.48;46.12;101098.13;5062406;28;53395;-58
2022/08/19 03:45:29;;;;;;;;;13.25;12.50;;;;;21.48;46.16;101103.47;5062792;28;45248;-58
2022/08/19 03:47:54;;;;;;;;;11.75;11.75;;;;;21.48;46.18;101100.81;5062602;28;45557;-58
2022/08/19 03:50:20;;;;;;;;;13.25;12.75;;;;;21.46;46.89;101098.22;5062400;28;45323;-58
2022/08/19 03:52:51;;;;;;;;;11.25;11.25;;;;;21.47;46.39;101099.06;5081821;28;45282;-58
2022/08/19 03:55:18;;;;;;;;;12.25;11.00;;;;;21.47;46.40;101101.75;5083111;28;45336;-58
2022/08/19 03:57:44;;;;;;;;;12.50;10.75;;;;;21.49;46.97;101099.84;5082832;28;45499;-58
2022/08/19 04:00:11;;;;;;;;;12.25;10.50;;;;;21.49;46.58;101099.84;5082492;28;45334;-57
2022/08/19 04:02:36;;;;;;;;;11.75;10.00;;;;;21.46;46.76;101094.66;5075287;28;46533;-58
2022/08/19 04:05:01;;;;;;;;;14.00;11.75;;;;;21.47;47.39;101094.59;5062073;28;45481;-58
2022/08/19 04:07:27;;;;;;;;;10.00;8.75;;;;;21.47;46.90;101096.41;5062234;28;45316;-57
2022/08/19 04:09:53;;;;;;;;;14.75;11.50;;;;;21.47;47.09;101099.94;5062184;28;45319;-57
2022/08/19 04:12:20;;;;;;;;;13.75;11.75;;;;;21.47;46.97;101097.28;5062300;28;45440;-57
2022/08/19 04:14:45;;;;;;;;;12.00;10.25;;;;;21.49;47.35;101098.03;5062377;28;45441;-58
2022/08/19 04:17:12;;;;;;;;;15.50;13.75;;;;;21.50;47.22;101091.75;5069098;28;45303;-57
2022/08/19 04:19:38;;;;;;;;;12.25;10.25;;;;;21.52;47.15;101095.22;5082103;28;45365;-58
2022/08/19 04:22:04;;;;;;;;;7.25;7.25;;;;;21.54;47.03;101093.28;5082238;28;45232;-57
2022/08/19 04:24:29;;;;;;;;;18.50;15.50;;;;;21.56;46.98;101095.94;5082180;28;45492;-58
2022/08/19 04:26:55;;;;;;;;;8.75;8.75;;;;;21.56;46.85;101088.78;5082416;28;45359;-57
2022/08/19 04:29:24;;;;;;;;;10.50;9.75;;;;;21.60;47.12;101094.81;5067464;28;46899;-58
2022/08/19 04:31:51;;;;;;;;;9.25;8.25;;;;;21.60;47.06;101097.50;5068620;28;45233;-58
2022/08/19 04:34:22;;;;;;;;;10.50;9.25;;;;;21.61;46.87;101096.56;5082171;28;45264;-58
2022/08/19 04:36:47;;;;;;;;;9.25;9.25;;;;;21.64;47.10;101107.06;5082044;28;45422;-58
2022/08/19 04:39:19;;;;;;;;;12.75;11.75;;;;;21.66;47.24;101107.84;5066945;28;48107;-58
2022/08/19 04:44:32;;;;;;;;;13.50;10.50;;;;;21.68;47.52;101118.47;5082070;28;45365;-58
2022/08/19 04:46:57;;;;;;;;;13.50;11.50;;;;;21.68;47.36;101115.78;5080624;28;45260;-58
2022/08/19 04:49:24;;;;;;;;;12.50;10.25;;;;;21.71;47.56;101123.63;5081765;28;46015;-58
2022/08/19 04:51:53;;;;;;;;;10.25;9.50;;;;;21.71;47.51;101116.47;5073243;28;45256;-58
2022/08/19 04:54:22;;;;;;;;;8.50;8.25;;;;;21.71;47.59;101121.84;5081678;27;45235;-58
2022/08/19 04:56:49;;;;;;;;;10.75;9.00;;;;;21.73;47.40;101127.94;5081920;28;45492;-58
2022/08/19 04:59:15;;;;;;;;;10.25;7.25;;;;;21.77;46.96;101130.47;5081419;28;46349;-58
2022/08/19 05:01:42;;;;;;;;;11.00;8.75;;;;;21.78;47.37;101124.16;5081432;28;45446;-58
2022/08/19 05:04:08;;;;;;;;;11.25;8.25;;;;;21.79;47.40;101128.56;5062139;27;45530;-58
2022/08/19 05:06:34;;;;;;;;;10.00;9.50;;;;;21.78;47.60;101121.50;5061201;28;45166;-58
2022/08/19 05:09:02;;;;;;;;;12.75;11.25;;;;;21.76;47.42;101129.63;5061031;28;45323;-58
2022/08/19 05:11:31;;;;;;;;;7.00;7.00;;;;;21.79;47.36;101131.25;5061392;28;45395;-58
2022/08/19 05:13:58;;;;;;;;;7.00;7.00;;;;;21.80;47.04;101135.63;5068018;28;45293;-58
2022/08/19 05:16:25;;;;;;;;;8.75;6.25;;;;;21.78;47.28;101142.88;5081277;28;45414;-58
2022/08/19 05:24:20;;;;;;;;;7.25;7.25;;;;;21.75;47.65;101146.59;5081330;28;45245;-58
2022/08/19 05:26:48;;;;;;;;;6.75;6.75;;;;;21.73;47.78;101149.34;5079791;28;45819;-57
2022/08/19 05:29:16;;;;;;;;;4.50;4.50;;;;;21.74;47.43;101150.22;5081162;28;46281;-58
2022/08/19 05:31:42;;;;;;;;;7.75;7.00;;;;;21.73;47.83;101149.34;5080782;28;45279;-57
2022/08/19 05:34:07;;;;;;;;;7.25;6.00;;;;;21.74;47.38;101143.03;5081203;28;45238;-57
2022/08/19 05:36:39;;;;;;;;;7.50;6.75;;;;;21.75;47.78;101147.44;5081085;28;45282;-58
2022/08/19 05:39:10;;;;;;;;;8.75;7.25;;;;;21.78;48.03;101142.88;5079566;28;47122;-58
2022/08/19 05:41:36;;;;;;;;;4.00;3.75;;;;;21.80;47.51;101138.31;5081070;27;45346;-57
2022/08/19 05:44:06;;;;;;;;;7.50;7.50;;;;;21.79;47.99;101148.16;5081116;28;45247;-58
2022/08/19 05:46:32;;;;;;;;;3.00;3.00;;;;;21.80;47.92;101141.84;5080955;27;45535;-57
2022/08/19 05:48:58;;;;;;;;;7.00;7.00;;;;;21.80;48.29;101136.50;5080833;28;46303;-58
2022/08/19 05:51:24;;;;;;;;;6.50;6.50;;;;;21.81;47.67;101148.06;5072154;28;45308;-57
2022/08/19 05:53:50;;;;;;;;;8.00;7.50;;;;;21.81;47.80;101132.91;5080711;28;45334;-57
2022/08/19 05:56:17;;;;;;;;;6.25;6.25;;;;;21.80;47.97;101147.22;5080975;28;45437;-57
2022/08/19 05:58:44;;;;;;;;;8.50;5.25;;;;;21.83;48.10;101151.53;5080081;27;46923;-58
2022/08/19 06:01:16;;;;;;;;;6.75;6.50;;;;;21.85;48.02;101149.63;5080678;28;45207;-58
2022/08/19 06:03:41;;;;;;;;;6.50;5.00;;;;;21.86;47.94;101154.00;5065126;28;45281;-57
2022/08/19 06:06:08;;;;;;;;;4.75;4.00;;;;;21.85;47.98;101150.50;5060538;28;45310;-57
2022/08/19 06:08:36;;;;;;;;;4.00;3.00;;;;;21.83;47.99;101147.03;5059977;28;48294;-58
2022/08/19 06:11:17;;;;;;;;;5.75;5.00;;;;;21.85;48.51;101155.00;5060327;28;45233;-57
2022/08/19 06:13:43;;;;;;;;;6.75;4.75;;;;;21.86;48.12;101156.69;5060100;28;45328;-58
2022/08/19 06:16:09;;;;;;;;;7.25;6.00;;;;;21.86;48.40;101160.25;5060272;28;45415;-57
2022/08/19 06:18:34;;;;;;;;;5.50;5.50;;;;;21.87;47.91;101166.44;5059934;28;46131;-58
2022/08/19 06:21:03;;;;;;;;;4.00;4.00;;;;;21.87;48.33;101167.34;5060158;28;45409;-58
2022/08/19 06:23:29;;;;;;;;;4.50;4.50;;;;;21.87;48.47;101166.44;5060037;28;45656;-58
2022/08/19 06:25:54;;;;;;;;;5.50;5.00;;;;;21.88;48.54;101173.53;5060107;28;45236;-57
2022/08/19 06:28:20;;;;;;;;;5.25;5.25;;;;;21.88;48.45;101174.38;5074385;28;47078;-58
2022/08/19 06:30:46;;;;;;;;;3.25;3.25;;;;;21.89;48.18;101177.94;5060029;28;45336;-58
2022/08/19 06:33:11;;;;;;;;;3.25;2.50;;;;;21.87;48.46;101177.16;5060129;28;45411;-58
2022/08/19 06:35:41;;;;;;;;;5.50;5.50;;;;;21.88;48.68;101178.88;5060031;28;45530;-58
2022/08/19 06:38:06;;;;;;;;;6.75;6.50;;;;;21.84;48.72;101172.81;5059826;28;45248;-58
2022/08/19 06:40:31;;;;;;;;;6.25;6.25;;;;;21.87;48.75;101182.50;5059895;28;45366;-57
2022/08/19 06:42:59;;;;;;;;;7.00;6.00;;;;;21.84;48.48;101175.50;5059940;28;47278;-58
2022/08/19 06:45:25;;;;;;;;;6.50;3.25;;;;;21.84;48.70;101186.22;5059875;28;45220;-57
2022/08/19 06:47:51;;;;;;;;;4.75;4.75;;;;;21.83;48.76;101176.44;5059407;28;46092;-58
2022/08/19 06:50:16;;;;;;;;;3.75;3.50;;;;;21.83;48.78;101184.47;5059772;28;45413;-57
2022/08/19 06:52:42;;;;;;;;;4.25;4.00;;;;;21.82;48.89;101181.88;5078671;28;45480;-57
2022/08/19 06:55:07;;;;;;;;;5.50;4.25;;;;;21.80;48.81;101189.13;5080000;28;47842;-57
2022/08/19 06:57:34;;;;;;;;;5.50;3.50;;;;;21.77;48.58;101198.19;5079871;28;46292;-58
2022/08/19 07:00:00;;;;;;;;;2.25;2.25;;;;;21.75;48.86;101198.28;5080011;28;45394;-58
2022/08/19 07:02:26;;;;;;;;;3.50;3.50;;;;;21.74;48.85;101209.91;5073698;28;45489;-57
2022/08/19 07:04:52;;;;;;;;;2.00;2.00;;;;;21.71;49.50;101195.81;5059833;28;45251;-57
2022/08/19 07:07:20;;;;;;;;;3.50;3.00;;;;;21.72;49.33;101198.44;5059110;28;45379;-58
2022/08/19 07:09:46;;;;;;;;;2.50;2.50;;;;;21.74;49.46;101195.69;5060171;28;45425;-58
2022/08/19 07:12:15;;;;;;;;;2.75;2.75;;;;;21.74;48.82;101195.69;5063202;28;45501;-57
2022/08/19 07:14:41;;;;;;;;;3.00;3.00;;;;;21.72;49.58;101202.91;5063295;28;45236;-57
2022/08/19 07:17:09;;;;;;;;;2.00;2.00;;;;;21.73;49.63;101201.97;5062827;28;45213;-57
2022/08/19 07:19:36;;;;;;;;;2.00;2.00;;;;;21.74;49.66;101204.56;5063079;28;45351;-57
2022/08/19 07:22:04;;;;;;;;;3.00;2.00;;;;;21.75;49.42;101200.94;5063107;28;45320;-57
2022/08/19 07:24:30;;;;;;;;;3.50;2.50;;;;;21.79;49.71;101203.47;5062586;28;46082;-57
2022/08/19 07:27:00;;;;;;;;;2.75;2.75;;;;;21.82;49.21;101203.28;5062837;28;45251;-58
2022/08/19 07:29:26;;;;;;;;;2.75;2.75;;;;;21.84;49.76;101204.94;5063022;28;45402;-57
2022/08/19 07:31:55;;;;;;;;;3.00;2.50;;;;;21.83;49.17;101202.34;5062941;28;45327;-57
2022/08/19 07:34:21;;;;;;;;;3.25;3.25;;;;;21.84;49.08;101201.41;5062213;28;45567;-58
2022/08/19 07:36:47;;;;;;;;;5.00;3.00;;;;;21.82;49.40;101204.13;5062766;28;45240;-57
2022/08/19 07:39:22;;;;;;;;;2.00;2.00;;;;;21.83;49.38;101194.31;5062400;28;45177;-58
2022/08/19 07:41:48;;;;;;;;;3.00;3.00;;;;;21.85;49.55;101197.78;5062721;28;45255;-57
2022/08/19 07:44:15;;;;;;;;;18.25;18.25;;;;;21.85;49.94;101203.13;5062579;28;45170;-57
2022/08/19 07:46:44;;;;;;;;;51.75;44.00;;;;;21.86;49.69;101204.84;5060576;28;46418;-57
2022/08/19 07:49:18;;;;;;;;;126.00;119.75;;;;;21.88;49.64;101213.66;5062465;28;45280;-57
2022/08/19 07:51:52;;;;;;;;;73.00;60.00;;;;;21.89;49.77;101204.69;5073555;28;45538;-57
2022/08/19 07:54:18;;;;;;;;;4.00;3.50;;;;;21.90;49.97;101207.28;5082524;28;45334;-57
2022/08/19 07:56:44;;;;;;;;;3.00;3.00;;;;;21.94;49.75;101210.66;5082537;28;45431;-57
2022/08/19 07:59:11;;;;;;;;;2.00;1.00;;;;;21.94;50.04;101212.44;5082606;28;45480;-57
2022/08/19 08:01:39;;;;;;;;;1.00;1.00;;;;;21.99;49.97;101210.41;5082511;28;45201;-57
2022/08/19 08:09:37;;;;;;;;;3.75;2.00;;;;;22.09;49.74;101219.66;5062353;28;45221;-57
2022/08/19 08:12:10;;;;;;;;;2.00;2.00;;;;;22.11;49.38;101231.09;5062284;28;45461;-57
2022/08/19 08:14:44;;;;;;;;;2.00;2.00;;;;;22.11;50.33;101223.09;5062356;28;45474;-57
2022/08/19 08:17:10;;;;;;;;;3.25;2.75;;;;;22.11;50.06;101225.75;5061891;28;45407;-57
2022/08/19 08:19:36;;;;;;;;;3.50;2.50;;;;;22.13;49.80;101225.69;5061984;28;45379;-57
2022/08/19 08:22:02;;;;;;;;;2.75;2.75;;;;;22.06;49.85;101220.69;5061762;28;45491;-57
2022/08/19 08:24:30;;;;;;;;;3.75;2.75;;;;;22.15;49.68;101237.16;5061667;28;45343;-57
2022/08/19 08:26:58;;;;;;;;;1.50;1.50;;;;;22.15;50.28;101232.69;5061276;28;45282;-57
2022/08/19 08:29:25;;;;;;;;;4.00;2.00;;;;;22.18;49.74;101239.69;5061878;28;45258;-57
2022/08/19 08:31:51;;;;;;;;;4.00;3.00;;;;;22.21;49.85;101231.47;5069033;28;45324;-57
2022/08/19 08:34:16;;;;;;;;;3.50;2.00;;;;;22.23;49.74;101232.25;5082074;28;45501;-57
2022/08/19 08:36:45;;;;;;;;;4.00;3.00;;;;;22.24;49.64;101232.16;5082366;28;46416;-57
2022/08/19 08:39:16;;;;;;;;;2.00;2.00;;;;;22.31;49.78;101245.22;5081767;28;45263;-57
2022/08/19 08:41:53;;;;;;;;;3.25;2.00;;;;;22.34;49.76;101243.22;5082227;28;45423;-57
2022/08/19 08:44:46;;;;;;;;;4.50;2.50;;;;;22.38;49.93;101246.63;5067043;28;45332;-57
2022/08/19 08:47:17;;;;;;;;;3.00;3.00;;;;;22.40;49.78;101247.41;5067163;28;47083;-58
2022/08/19 08:49:59;;;;;;;;;4.75;4.75;;;;;22.42;49.46;101234.81;5066113;28;45173;-57
2022/08/19 08:52:35;;;;;;;;;4.00;3.00;;;;;22.44;49.71;101240.06;5078110;28;45338;-57
2022/08/19 08:55:06;;;;;;;;;5.25;3.25;;;;;22.46;49.57;101235.50;5081820;28;45181;-57
2022/08/19 08:57:38;;;;;;;;;2.75;2.75;;;;;22.46;49.62;101247.06;5081603;28;46651;-57
2022/08/19 09:00:06;;;;;;;;;4.50;3.00;;;;;22.47;49.80;101242.59;5081651;28;45242;-57
2022/08/19 09:02:32;;;;;;;;;2.00;2.00;;;;;22.50;49.60;101245.06;5075450;28;45318;-58
2022/08/19 09:04:57;;;;;;;;;2.00;2.00;;;;;22.47;49.25;101243.44;5061462;28;45298;-58
2022/08/19 09:07:58;;;;;;;;;3.75;3.00;;;;;22.52;49.93;101240.50;5060980;28;45389;-58
2022/08/19 09:10:39;;;;;;;;;2.75;2.50;;;;;22.52;49.67;101244.03;5036224;28;45305;-58
2022/08/19 09:13:34;;;;;;;;;2.00;2.00;;;;;22.56;49.83;101250.09;5060273;28;45232;-58
2022/08/19 09:16:09;;;;;;;;;2.50;2.50;;;;;22.57;49.34;101241.09;5061163;28;45569;-58
2022/08/19 09:18:46;;;;;;;;;2.50;2.50;;;;;22.57;49.54;101233.06;5061077;28;46151;-58
2022/08/19 09:21:13;;;;;;;;;3.25;3.00;;;;;22.61;49.02;101245.31;5060762;28;45255;-58
2022/08/19 09:23:38;;;;;;;;;4.50;3.00;;;;;22.63;49.62;101237.19;5060894;28;45291;-57
2022/08/19 09:26:09;;;;;;;;;4.50;2.25;;;;;22.65;49.52;101241.50;5060986;28;45470;-57
2022/08/19 09:28:36;;;;;;;;;2.75;2.75;;;;;22.68;49.42;101236.00;5068301;28;45431;-57
2022/08/19 09:31:02;;;;;;;;;5.00;4.00;;;;;22.72;50.07;101242.03;5080912;28;45189;-58
2022/08/19 09:33:27;;;;;;;;;2.00;2.00;;;;;22.74;49.64;101234.75;5080874;28;45443;-57
2022/08/19 09:36:03;;;;;;;;;3.00;3.00;;;;;22.81;49.60;101235.28;5081468;28;45243;-57
2022/08/19 09:38:28;;;;;;;;;2.50;2.25;;;;;22.83;49.58;101233.38;5080830;28;46315;-57
2022/08/19 09:40:53;;;;;;;;;4.00;3.00;;;;;22.89;49.73;101230.34;5080926;28;45421;-58
2022/08/19 09:43:19;;;;;;;;;4.25;4.25;;;;;22.94;49.81;101228.25;5081587;28;45397;-57
2022/08/19 09:45:44;;;;;;;;;2.25;2.25;;;;;23.02;49.71;101233.19;5081052;28;45177;-58
2022/08/19 09:48:09;;;;;;;;;4.50;3.25;;;;;23.08;49.65;101235.50;5071481;28;46291;-58
2022/08/19 09:50:38;;;;;;;;;3.00;3.00;;;;;23.05;49.55;101208.88;5065253;28;45677;-58
2022/08/19 09:53:03;;;;;;;;;3.25;3.25;;;;;23.20;49.34;101231.25;5081005;27;45348;-58
2022/08/19 09:55:28;;;;;;;;;3.00;2.25;;;;;23.25;49.36;101222.94;5080847;28;45442;-58
2022/08/19 09:57:54;;;;;;;;;5.00;2.50;;;;;23.33;49.25;101226.88;5071114;28;47045;-57
2022/08/19 10:00:20;;;;;;;;;5.25;2.50;;;;;23.40;49.38;101226.50;5074380;28;45993;-58
2022/08/19 10:02:46;;;;;;;;;5.00;3.75;;;;;23.46;49.48;101223.44;5072477;28;45386;-58
2022/08/19 10:07:55;;;;;;;;;3.00;3.00;;;;;23.60;49.07;101227.97;5060339;28;45291;-58
2022/08/19 10:10:20;;;;;;;;;5.00;5.00;;;;;23.66;49.36;101228.44;5060276;28;45295;-58
2022/08/19 10:12:47;;;;;;;;;3.75;3.75;;;;;23.74;49.19;101227.13;5060649;28;45492;-57
2022/08/19 10:15:13;;;;;;;;;4.00;3.00;;;;;23.82;49.17;101222.13;5060196;28;45219;-58
2022/08/19 10:17:38;;;;;;;;;3.75;2.75;;;;;23.88;49.15;101232.47;5060074;28;45246;-57
2022/08/19 10:20:04;;;;;;;;;2.50;2.50;;;;;23.97;49.15;101223.84;5060123;28;45216;-57
2022/08/19 10:22:30;;;;;;;;;4.50;3.50;;;;;24.03;49.11;101222.63;5060198;28;45367;-56
2022/08/19 10:24:56;;;;;;;;;3.25;3.25;;;;;24.14;48.99;101224.63;5060132;28;45363;-57
2022/08/19 10:27:21;;;;;;;;;3.00;2.75;;;;;24.20;48.91;101231.41;5058740;28;47326;-57
2022/08/19 10:29:47;;;;;;;;;2.50;2.50;;;;;24.21;48.76;101217.88;5060106;28;45350;-57
2022/08/19 10:32:13;;;;;;;;;5.50;4.50;;;;;24.26;48.53;101225.66;5060128;28;45495;-58
2022/08/19 10:34:39;;;;;;;;;2.00;2.00;;;;;24.32;48.35;101225.25;5060039;28;45253;-57
2022/08/19 10:37:05;;;;;;;;;2.25;2.25;;;;;24.36;48.87;101216.03;5059958;28;45414;-57
2022/08/19 10:39:35;;;;;;;;;4.25;3.25;;;;;24.41;48.55;101221.97;5072630;28;45258;-57
2022/08/19 10:42:06;;;;;;;;;5.25;3.50;;;;;24.46;48.69;101217.16;5059973;28;45414;-58
2022/08/19 10:44:32;;;;;;;;;5.50;5.50;;;;;24.55;48.33;101222.91;5058546;28;45236;-56
2022/08/19 10:46:58;;;;;;;;;3.50;2.50;;;;;24.64;48.74;101220.50;5059764;28;45473;-57
2022/08/19 10:49:23;;;;;;;;;4.75;4.00;;;;;24.76;48.46;101220.66;5059805;28;45380;-57
2022/08/19 10:57:17;;;;;;;;;4.25;4.00;;;;;25.22;48.47;101222.91;5079999;28;45285;-57
2022/08/19 10:59:42;;;;;;;;;1.50;1.50;;;;;25.37;48.51;101212.09;5079827;28;45263;-57
2022/08/19 11:02:11;;;;;;;;;2.75;2.50;;;;;25.58;48.47;101213.28;5076888;28;45470;-58
2022/08/19 11:04:38;;;;;;;;;3.75;3.25;;;;;25.69;48.08;101206.28;5059860;28;45316;-57
2022/08/19 11:07:05;;;;;;;;;2.00;1.00;;;;;25.80;47.41;101209.09;5059242;28;45386;-58
2022/08/19 11:09:31;;;;;;;;;4.75;3.00;;;;;25.83;47.47;101210.69;5059718;28;45302;-58
2022/08/19 11:11:57;;;;;;;;;1.25;1.25;;;;;25.87;47.43;101204.09;5059650;28;45319;-57
2022/08/19 11:14:23;;;;;;;;;2.25;2.25;;;;;25.92;47.73;101208.22;5059795;28;45236;-57
2022/08/19 11:16:50;;;;;;;;;3.00;3.00;;;;;25.97;47.38;101199.78;5059439;28;45419;-58
2022/08/19 11:19:19;;;;;;;;;3.50;2.25;;;;;26.02;46.87;101197.59;5059535;28;45434;-57
2022/08/19 11:21:48;;;;;;;;;3.25;3.25;;;;;26.08;47.41;101202.59;5059420;28;45316;-57
2022/08/19 11:24:20;;;;;;;;;3.00;2.00;;;;;26.05;47.21;101192.06;5059282;28;45310;-57
2022/08/19 11:26:49;;;;;;;;;3.00;3.00;;;;;26.10;46.69;101191.69;5059146;28;45302;-57
2022/08/19 11:29:15;;;;;;;;;3.50;3.00;;;;;26.10;46.95;101187.19;5059313;28;45285;-57
2022/08/19 11:31:44;;;;;;;;;3.00;3.00;;;;;26.10;46.95;101184.50;5073937;28;45429;-57
2022/08/19 11:34:13;;;;;;;;;3.50;3.50;;;;;26.15;46.81;101191.38;5059446;28;45486;-57
2022/08/19 11:36:42;;;;;;;;;2.00;2.00;;;;;26.14;46.47;101189.63;5059134;28;46335;-58
2022/08/19 11:39:09;;;;;;;;;2.50;2.00;;;;;26.22;46.76;101188.09;5058816;28;45337;-57
2022/08/19 11:41:35;;;;;;;;;3.50;3.00;;;;;26.32;46.49;101190.13;5059289;28;45445;-58
2022/08/19 11:44:02;;;;;;;;;2.25;2.25;;;;;26.41;46.77;101182.25;5059058;28;45252;-58